Aviation Digital Data Service (ADDS)

Output produced by METARs form (1312 UTC 24 August 2019)
found at http://www.aviationweather.gov/metar/data/
 
Forecast for: FBFT (FRANCISTOWN , BW)
Text: TAF FBFT 241200Z 2415/2424 10012KT CAVOK
Forecast period: 1500 UTC 24 August 2019 to 0000 UTC 25 August 2019
Forecast type: FROM: standard forecast or significant change
Winds: from the E (100 degrees) at 14 MPH (12 knots; 6.2 m/s)
Visibility: 6 or more miles 10+ km)
Ceiling: unknown
Clouds: missing
Weather: NSW  (no significant weather)